createdAt,value
2022-11-20T02:47:05.199Z,12.60
2022-11-20T02:48:09.384Z,10.57
2022-11-20T02:49:13.458Z,11.57
2022-11-20T02:50:20.100Z,9.87
2022-11-20T02:51:25.011Z,14.20
2022-11-20T02:52:28.980Z,11.27
2022-11-20T02:53:41.712Z,10.73
2022-11-20T02:54:55.780Z,10.67
2022-11-20T02:56:00.645Z,10.83
2022-11-20T02:57:07.134Z,9.33
2022-11-20T02:58:13.710Z,10.50
2022-11-20T02:59:17.487Z,10.77
2022-11-20T03:00:25.692Z,10.50
2022-11-20T03:03:37.972Z,10.87
2022-11-20T03:04:43.334Z,10.80
2022-11-20T03:05:46.920Z,13.52
2022-11-20T03:06:50.410Z,12.25
2022-11-20T03:07:56.106Z,9.38
2022-11-20T03:09:05.312Z,11.77
2022-11-20T03:10:10.193Z,12.10
2022-11-20T03:11:14.359Z,12.47
2022-11-20T03:12:20.452Z,10.63
2022-11-20T03:13:27.767Z,12.93
2022-11-20T03:14:36.150Z,11.17
2022-11-20T03:15:50.573Z,10.50
2022-11-20T03:16:54.072Z,9.17
2022-11-20T03:17:59.066Z,12.97
2022-11-20T03:19:16.024Z,11.00
2022-11-20T03:20:19.824Z,12.53
2022-11-20T03:21:26.448Z,13.03
2022-11-20T03:22:33.292Z,11.07
2022-11-20T03:23:39.627Z,13.27
2022-11-20T03:24:47.532Z,13.17
2022-11-20T03:25:54.922Z,11.87
2022-11-20T03:26:59.025Z,10.83
2022-11-20T03:28:02.599Z,11.88
2022-11-20T03:29:06.660Z,13.33
2022-11-20T03:30:13.102Z,10.50
2022-11-20T03:31:24.745Z,10.80
2022-11-20T03:32:28.755Z,11.80
2022-11-20T03:33:32.284Z,14.27
2022-11-20T03:34:35.879Z,13.23
2022-11-20T03:35:39.986Z,9.93
2022-11-20T03:36:46.086Z,9.40
2022-11-20T03:37:52.474Z,12.10
2022-11-20T03:39:00.261Z,11.30
2022-11-20T03:40:06.588Z,12.13
2022-11-20T03:41:21.171Z,12.77
2022-11-20T03:42:49.081Z,10.97
2022-11-20T03:44:07.647Z,11.47
2022-11-20T03:45:16.410Z,12.13
2022-11-20T03:46:21.008Z,11.20
2022-11-20T03:47:29.821Z,11.03
2022-11-20T03:48:39.258Z,11.70
2022-11-20T03:49:50.200Z,12.30
2022-11-20T03:51:27.845Z,10.77
2022-11-20T03:52:33.923Z,13.70
2022-11-20T03:53:46.203Z,12.67
2022-11-20T03:54:56.427Z,10.63
2022-11-20T03:56:00.518Z,10.93
2022-11-20T03:57:05.803Z,11.53
2022-11-20T03:58:14.538Z,12.90
2022-11-20T03:59:18.317Z,15.20
2022-11-20T04:00:22.243Z,10.87
2022-11-20T04:01:30.557Z,9.83
2022-11-20T04:02:34.681Z,12.30
2022-11-20T04:03:43.656Z,13.20
2022-11-20T04:04:47.821Z,9.90
2022-11-20T04:05:53.840Z,10.57
2022-11-20T04:06:58.998Z,13.03
2022-11-20T04:08:02.999Z,12.30
2022-11-20T04:09:08.203Z,13.77
2022-11-20T04:10:14.859Z,10.67
2022-11-20T04:11:26.774Z,11.70
2022-11-20T04:12:38.744Z,11.40
2022-11-20T04:13:56.669Z,12.35
2022-11-20T04:15:00.825Z,12.07
2022-11-20T04:16:06.355Z,12.60
2022-11-20T04:17:13.146Z,13.73
2022-11-20T04:18:23.491Z,11.63
2022-11-20T04:19:36.231Z,11.53
2022-11-20T04:20:43.407Z,12.20
2022-11-20T04:21:48.136Z,11.75
2022-11-20T04:22:58.084Z,11.20
2022-11-20T04:24:02.352Z,11.43
2022-11-20T04:25:10.310Z,12.77
2022-11-20T04:26:18.890Z,12.63
2022-11-20T04:27:23.817Z,11.43
2022-11-20T04:28:30.804Z,12.67
2022-11-20T04:29:36.116Z,10.90
2022-11-20T04:30:42.674Z,13.47
2022-11-20T04:31:46.856Z,12.10
2022-11-20T04:32:59.431Z,10.63
2022-11-20T04:34:08.933Z,10.97
2022-11-20T04:35:15.877Z,10.20
2022-11-20T04:36:27.967Z,13.17
2022-11-20T04:37:32.134Z,13.43
2022-11-20T04:38:38.215Z,12.40
2022-11-20T04:39:47.319Z,12.30
2022-11-20T04:40:58.510Z,10.67
2022-11-20T04:42:25.701Z,11.07
2022-11-20T04:43:36.996Z,10.60
2022-11-20T04:44:41.034Z,10.00
2022-11-20T04:45:44.466Z,10.32
2022-11-20T04:46:50.632Z,11.87
2022-11-20T04:47:58.410Z,10.90
2022-11-20T04:49:10.918Z,11.93
2022-11-20T04:50:23.025Z,10.97
2022-11-20T04:51:35.427Z,10.70
2022-11-20T04:52:45.342Z,13.20
2022-11-20T04:53:51.603Z,13.40
2022-11-20T04:54:59.508Z,13.00
2022-11-20T04:56:08.357Z,10.43
2022-11-20T04:57:17.990Z,10.73
2022-11-20T04:58:28.612Z,12.13
2022-11-20T04:59:42.796Z,13.60
2022-11-20T05:00:49.219Z,11.40
2022-11-20T05:01:52.980Z,12.63
2022-11-20T05:02:56.526Z,10.33
2022-11-20T05:03:59.889Z,10.13
2022-11-20T05:05:03.447Z,10.70
2022-11-20T05:06:09.143Z,11.47
2022-11-20T05:07:13.249Z,11.90
2022-11-20T05:08:16.835Z,10.30
2022-11-20T05:09:20.584Z,11.77
2022-11-20T05:10:25.605Z,9.77
2022-11-20T05:11:32.134Z,10.47
2022-11-20T05:12:43.839Z,12.23
2022-11-20T05:13:52.980Z,10.98
2022-11-20T05:15:05.977Z,9.85
2022-11-20T05:16:17.445Z,9.67
2022-11-20T05:17:23.886Z,9.27
2022-11-20T05:18:28.651Z,12.57
2022-11-20T05:19:35.719Z,13.00
2022-11-20T05:20:43.947Z,11.77
2022-11-20T05:21:53.652Z,9.80
2022-11-20T05:23:02.363Z,10.57
2022-11-20T05:24:15.630Z,9.57
2022-11-20T05:25:23.313Z,11.80
2022-11-20T05:26:32.394Z,13.23
2022-11-20T05:27:59.052Z,10.63
2022-11-20T05:29:10.263Z,10.33
2022-11-20T05:30:19.415Z,9.13
2022-11-20T05:31:30.182Z,10.27
2022-11-20T05:32:56.635Z,10.40
2022-11-20T05:35:24.956Z,10.30
2022-11-20T05:36:32.646Z,10.83
2022-11-20T05:37:50.501Z,10.43
2022-11-20T05:39:01.715Z,8.80
2022-11-20T05:41:45.503Z,8.70
2022-11-20T05:42:53.003Z,9.00
2022-11-20T05:44:05.203Z,11.67
2022-11-20T05:45:11.874Z,10.07
2022-11-20T05:46:28.115Z,11.77
2022-11-20T05:47:41.684Z,9.50
2022-11-20T05:49:01.041Z,11.97
2022-11-20T05:50:07.246Z,11.70
2022-11-20T05:51:18.979Z,9.83
2022-11-20T05:52:32.394Z,10.07
2022-11-20T05:53:46.873Z,12.83
2022-11-20T05:56:24.232Z,12.90
2022-11-20T05:57:27.877Z,11.20
2022-11-20T05:58:42.948Z,9.50
2022-11-20T05:59:54.951Z,10.77
2022-11-20T06:01:28.652Z,12.77
2022-11-20T06:02:40.881Z,9.93
2022-11-20T06:04:01.224Z,14.03
2022-11-20T06:05:15.795Z,11.75
2022-11-20T06:06:21.867Z,9.97
2022-11-20T06:07:29.814Z,11.32
2022-11-20T06:08:35.458Z,10.07
2022-11-20T06:09:44.483Z,10.63
2022-11-20T06:10:52.293Z,11.73
2022-11-20T06:11:59.432Z,11.97
2022-11-20T06:13:04.383Z,13.03
2022-11-20T06:14:11.749Z,13.87
2022-11-20T06:15:15.885Z,10.80
2022-11-20T06:17:54.098Z,12.63
2022-11-20T06:19:09.545Z,12.00
2022-11-20T06:21:43.959Z,13.30
2022-11-20T06:22:56.861Z,12.00
2022-11-20T06:24:03.115Z,9.93
2022-11-20T06:25:08.429Z,11.23
2022-11-20T06:26:20.486Z,10.18
2022-11-20T06:27:36.440Z,11.40
2022-11-20T06:28:48.140Z,12.63
2022-11-20T06:29:51.917Z,12.37
2022-11-20T06:31:00.616Z,12.25
2022-11-20T06:32:04.363Z,10.80
2022-11-20T06:33:09.572Z,10.10
2022-11-20T06:34:14.240Z,13.00
2022-11-20T06:35:24.071Z,10.33
2022-11-20T06:36:29.813Z,10.27
2022-11-20T06:37:38.766Z,12.00
2022-11-20T06:39:12.972Z,11.23
2022-11-20T06:40:22.263Z,10.23
2022-11-20T06:41:27.220Z,10.87
2022-11-20T06:42:30.700Z,10.70
2022-11-20T06:43:39.068Z,10.73
2022-11-20T06:44:44.849Z,12.93
2022-11-20T06:45:58.203Z,11.63
2022-11-20T06:47:04.986Z,13.10
2022-11-20T06:48:08.929Z,11.93
2022-11-20T06:49:20.161Z,12.30
2022-11-20T06:50:27.501Z,10.88
2022-11-20T06:51:34.671Z,10.73
2022-11-20T06:52:43.478Z,14.33
2022-11-20T06:53:47.294Z,11.83
2022-11-20T06:54:51.244Z,12.67
2022-11-20T06:55:59.004Z,10.30
2022-11-20T06:57:02.689Z,13.80
2022-11-20T06:58:06.223Z,11.80
2022-11-20T06:59:10.038Z,10.87
2022-11-20T07:00:18.111Z,12.07
2022-11-20T07:01:22.538Z,11.53
2022-11-20T07:02:26.087Z,10.48
2022-11-20T07:03:29.954Z,11.90
2022-11-20T07:04:33.570Z,10.57
2022-11-20T07:05:38.409Z,13.87
2022-11-20T07:06:42.083Z,13.10
2022-11-20T07:07:45.571Z,10.60
2022-11-20T07:08:53.601Z,13.50
2022-11-20T07:09:57.041Z,12.57
2022-11-20T07:11:03.609Z,11.50
2022-11-20T07:12:07.922Z,11.60
2022-11-20T07:13:11.564Z,13.98
2022-11-20T07:14:15.052Z,13.10
2022-11-20T07:15:20.181Z,14.03
2022-11-20T07:16:23.669Z,11.27
2022-11-20T07:17:27.457Z,15.33
2022-11-20T07:18:31.001Z,11.60
2022-11-20T07:19:34.549Z,12.73
2022-11-20T07:20:38.088Z,12.00
2022-11-20T07:21:41.776Z,11.80
2022-11-20T07:22:45.879Z,14.63
2022-11-20T07:23:49.270Z,12.60
2022-11-20T07:24:52.700Z,13.50
2022-11-20T07:25:56.179Z,13.93
2022-11-20T07:26:59.640Z,14.93
2022-11-20T07:28:03.722Z,13.60
2022-11-20T07:29:07.466Z,12.83
2022-11-20T07:30:11.872Z,12.83
2022-11-20T07:31:19.157Z,14.17
2022-11-20T07:32:23.450Z,13.57
2022-11-20T07:33:27.016Z,12.27
2022-11-20T07:34:30.399Z,15.53
2022-11-20T07:35:34.127Z,13.30
2022-11-20T07:36:40.176Z,14.13
2022-11-20T07:37:44.024Z,16.20
2022-11-20T07:38:48.085Z,13.07
2022-11-20T07:39:51.587Z,13.37
2022-11-20T07:40:57.490Z,15.10
2022-11-20T07:42:00.919Z,15.00
2022-11-20T07:43:04.331Z,18.57
2022-11-20T07:44:08.247Z,16.43
2022-11-20T07:45:11.722Z,13.33
2022-11-20T07:46:15.376Z,16.23
2022-11-20T07:47:18.747Z,15.70
2022-11-20T07:48:22.241Z,17.33
2022-11-20T07:49:26.010Z,16.57
2022-11-20T07:50:29.479Z,16.30
2022-11-20T07:51:32.943Z,16.07
2022-11-20T07:52:36.308Z,17.47
2022-11-20T07:53:39.658Z,16.00
2022-11-20T07:54:46.817Z,17.85
2022-11-20T07:55:53.564Z,21.03
2022-11-20T07:56:57.206Z,19.53
2022-11-20T07:58:00.969Z,17.37
2022-11-20T07:59:04.884Z,20.67
2022-11-20T08:00:12.189Z,21.47
2022-11-20T08:01:15.635Z,18.60
2022-11-20T08:02:19.278Z,18.27
2022-11-20T08:03:25.203Z,18.30
2022-11-20T08:04:29.349Z,18.30
2022-11-20T08:05:33.805Z,18.20
2022-11-20T08:06:38.102Z,18.57
2022-11-20T08:07:44.178Z,16.87
2022-11-20T08:08:47.649Z,20.77
2022-11-20T08:09:51.205Z,16.50
2022-11-20T08:11:15.169Z,15.53
2022-11-20T08:12:41.075Z,20.07
2022-11-20T08:14:03.829Z,17.70
2022-11-20T08:15:13.157Z,20.83
2022-11-20T08:16:17.440Z,19.53
2022-11-20T08:17:20.986Z,16.83
2022-11-20T08:18:31.120Z,17.53
2022-11-20T08:19:35.411Z,17.27
2022-11-20T08:20:39.790Z,16.93
2022-11-20T08:21:43.958Z,16.20
2022-11-20T08:22:47.387Z,17.10
2022-11-20T08:23:51.023Z,19.33
2022-11-20T08:24:54.510Z,15.10
2022-11-20T08:25:58.571Z,16.87
2022-11-20T08:27:03.278Z,16.47
2022-11-20T08:28:19.895Z,19.83
2022-11-20T08:29:24.840Z,16.47
2022-11-20T08:30:28.988Z,16.87
2022-11-20T08:31:33.465Z,19.60
2022-11-20T08:32:38.728Z,19.27
2022-11-20T08:33:42.317Z,16.75
2022-11-20T08:34:47.474Z,13.73
2022-11-20T08:35:50.895Z,16.55
2022-11-20T08:36:54.703Z,16.70
2022-11-20T08:37:58.626Z,15.17
2022-11-20T08:39:02.477Z,15.90
2022-11-20T08:40:07.526Z,17.20
2022-11-20T08:41:29.373Z,17.00
2022-11-20T08:42:32.850Z,15.80
2022-11-20T08:43:36.693Z,18.20
2022-11-20T08:44:40.278Z,17.40
2022-11-20T08:45:43.773Z,16.00
2022-11-20T08:46:48.142Z,17.25
2022-11-20T08:47:51.682Z,17.55
2022-11-20T08:48:55.947Z,19.43
2022-11-20T08:49:59.419Z,19.30
2022-11-20T08:51:02.994Z,16.20
2022-11-20T08:52:06.982Z,18.80
2022-11-20T08:53:10.787Z,19.43
2022-11-20T08:54:14.813Z,19.00
2022-11-20T08:55:18.429Z,17.23
2022-11-20T08:56:21.991Z,19.80
2022-11-20T08:57:25.562Z,19.55
2022-11-20T08:58:29.055Z,18.98
2022-11-20T09:00:57.517Z,19.53
2022-11-20T09:02:00.955Z,17.80
2022-11-20T09:03:04.714Z,16.93
2022-11-20T09:04:08.437Z,16.77
2022-11-20T09:05:12.675Z,18.13
2022-11-20T09:06:17.567Z,17.88
2022-11-20T09:07:21.605Z,16.30
2022-11-20T09:08:25.160Z,17.70
2022-11-20T09:09:29.230Z,17.13
2022-11-20T09:10:33.942Z,16.53
2022-11-20T09:11:37.399Z,14.63
2022-11-20T09:12:41.169Z,15.37
2022-11-20T09:13:44.601Z,17.53
2022-11-20T09:14:53.728Z,16.40
2022-11-20T09:16:08.890Z,16.17
2022-11-20T09:17:16.056Z,18.73
2022-11-20T09:18:19.633Z,14.97
2022-11-20T09:19:39.769Z,16.93
2022-11-20T09:20:44.293Z,15.05
2022-11-20T09:21:48.494Z,18.23
2022-11-20T09:22:52.446Z,15.03
2022-11-20T09:23:55.929Z,14.80
2022-11-20T09:25:00.544Z,17.83
2022-11-20T09:26:11.587Z,19.13
2022-11-20T09:27:15.932Z,18.07
2022-11-20T09:28:19.944Z,17.98
2022-11-20T09:29:23.793Z,18.27
2022-11-20T09:30:28.758Z,16.67
2022-11-20T09:31:32.376Z,15.40
2022-11-20T09:32:38.781Z,17.80
2022-11-20T09:33:42.455Z,14.27
2022-11-20T09:34:46.188Z,16.93
2022-11-20T09:35:49.679Z,11.88
2022-11-20T09:36:53.346Z,16.08
2022-11-20T09:37:57.567Z,16.97
2022-11-20T09:39:01.119Z,17.70
2022-11-20T09:40:05.376Z,17.17
2022-11-20T09:41:43.431Z,14.70
2022-11-20T09:43:15.335Z,16.57
2022-11-20T09:45:14.932Z,18.77
2022-11-20T09:47:01.264Z,15.20
2022-11-20T09:48:16.833Z,16.30
2022-11-20T09:50:17.364Z,15.23
2022-11-20T09:51:37.072Z,12.43
2022-11-20T09:53:05.627Z,15.65
2022-11-20T09:54:22.371Z,17.60
2022-11-20T09:55:28.283Z,17.08
2022-11-20T09:56:36.270Z,16.67
2022-11-20T09:57:46.118Z,15.60
2022-11-20T09:58:55.032Z,15.38
2022-11-20T10:00:03.654Z,15.40
2022-11-20T10:01:20.314Z,14.48
2022-11-20T10:03:00.035Z,14.63
2022-11-20T10:04:11.684Z,16.58
2022-11-20T10:05:31.351Z,16.05
2022-11-20T10:06:59.682Z,17.17
2022-11-20T10:08:56.557Z,14.63
2022-11-20T10:10:01.223Z,14.93
2022-11-20T10:11:24.609Z,15.80
2022-11-20T10:13:24.812Z,15.73
2022-11-20T10:14:47.330Z,12.80
2022-11-20T10:16:25.087Z,13.63
2022-11-20T10:17:37.714Z,13.55
2022-11-20T10:19:33.758Z,13.88
2022-11-20T10:21:36.941Z,13.90
2022-11-20T10:23:11.360Z,17.05
2022-11-20T10:24:33.894Z,14.80
2022-11-20T10:26:04.458Z,13.25
2022-11-20T10:27:56.757Z,13.30
2022-11-20T10:29:19.700Z,13.07
2022-11-20T10:30:26.006Z,14.75
2022-11-20T10:31:45.496Z,15.55
2022-11-20T10:33:20.728Z,13.77
2022-11-20T10:34:35.984Z,14.57
2022-11-20T10:35:54.196Z,15.35
2022-11-20T10:37:07.080Z,18.27
2022-11-20T10:38:31.855Z,14.32
2022-11-20T10:39:55.206Z,15.65
2022-11-20T10:41:22.052Z,13.70
2022-11-20T10:42:52.295Z,14.50
2022-11-20T10:44:14.287Z,16.20
2022-11-20T10:45:52.787Z,14.02
2022-11-20T10:46:56.871Z,14.82
2022-11-20T10:48:44.793Z,15.30
2022-11-20T10:49:54.512Z,14.90
2022-11-20T10:51:31.291Z,15.02
2022-11-20T10:53:00.121Z,15.77
2022-11-20T10:54:33.436Z,13.02
2022-11-20T10:56:31.950Z,13.82
2022-11-20T10:58:01.264Z,12.50
2022-11-20T10:59:13.548Z,16.52
2022-11-20T11:00:20.563Z,13.70
2022-11-20T11:01:24.835Z,14.57
2022-11-20T11:02:45.614Z,14.88
2022-11-20T11:03:53.086Z,15.20
2022-11-20T11:04:56.482Z,12.63
2022-11-20T11:06:20.273Z,13.05
2022-11-20T11:07:39.863Z,11.30
2022-11-20T11:08:46.113Z,14.48
2022-11-20T11:10:01.305Z,13.80
2022-11-20T11:11:30.256Z,14.40
2022-11-20T11:12:33.708Z,13.68
2022-11-20T11:13:37.286Z,14.75
2022-11-20T11:14:49.916Z,13.93
2022-11-20T11:15:55.343Z,17.00
2022-11-20T11:17:00.225Z,12.07
2022-11-20T11:18:04.148Z,14.55
2022-11-20T11:19:14.564Z,17.73
2022-11-20T11:20:25.508Z,15.02
2022-11-20T11:21:29.566Z,13.82
2022-11-20T11:22:45.698Z,16.92
2022-11-20T11:24:26.762Z,14.27
2022-11-20T11:25:34.944Z,14.63
2022-11-20T11:26:38.720Z,14.02
2022-11-20T11:27:51.360Z,15.93
2022-11-20T11:29:05.189Z,14.60
2022-11-20T11:30:24.168Z,12.77
2022-11-20T11:31:32.032Z,15.40
2022-11-20T11:32:35.962Z,14.63
2022-11-20T11:33:39.805Z,14.77
2022-11-20T11:34:59.352Z,16.60
2022-11-20T11:36:23.130Z,14.75
2022-11-20T11:37:37.231Z,13.50
2022-11-20T11:38:47.450Z,16.55
2022-11-20T11:40:03.984Z,14.65
2022-11-20T11:41:32.627Z,14.23
2022-11-20T11:42:36.712Z,14.88
2022-11-20T11:43:59.865Z,13.32
2022-11-20T11:45:07.040Z,14.07
2022-11-20T11:46:33.523Z,15.77
2022-11-20T11:47:43.054Z,15.10
2022-11-20T11:49:00.990Z,16.38
2022-11-20T11:50:10.614Z,11.30
2022-11-20T11:51:21.970Z,13.88
2022-11-20T11:52:30.340Z,13.82
2022-11-20T11:53:42.430Z,13.07
2022-11-20T11:55:14.549Z,13.85
2022-11-20T11:56:18.137Z,15.88
2022-11-20T11:57:48.042Z,14.05
2022-11-20T11:59:00.581Z,14.63
2022-11-20T12:00:20.820Z,12.98
2022-11-20T12:01:34.310Z,13.10
2022-11-20T12:02:50.129Z,16.17
2022-11-20T12:04:45.723Z,14.23
2022-11-20T12:06:05.098Z,12.20
2022-11-20T12:07:49.430Z,13.70
2022-11-20T12:09:11.054Z,14.05
2022-11-20T12:10:28.047Z,12.43
2022-11-20T12:12:20.274Z,11.63
2022-11-20T12:13:43.187Z,11.50
2022-11-20T12:14:52.019Z,15.65
2022-11-20T12:15:55.915Z,13.90
2022-11-20T12:17:04.810Z,12.57
2022-11-20T12:18:25.403Z,13.50
2022-11-20T12:19:34.398Z,13.10
2022-11-20T12:20:54.490Z,12.63
2022-11-20T12:22:40.281Z,10.70
2022-11-20T12:24:37.119Z,12.70
2022-11-20T12:25:49.217Z,13.48
2022-11-20T12:27:05.080Z,12.20
2022-11-20T12:28:38.737Z,13.98
2022-11-20T12:30:07.625Z,13.55
2022-11-20T12:31:40.609Z,12.43
2022-11-20T12:32:58.885Z,14.68
2022-11-20T12:34:16.694Z,10.77
2022-11-20T12:35:54.965Z,13.63
2022-11-20T12:37:33.925Z,15.80
2022-11-20T12:39:10.570Z,12.52
2022-11-20T12:40:39.637Z,14.00
2022-11-20T12:42:11.020Z,12.73
2022-11-20T12:43:49.493Z,14.90
2022-11-20T12:45:45.352Z,13.18
2022-11-20T12:47:14.287Z,11.68
2022-11-20T12:48:59.279Z,10.38
2022-11-20T12:51:08.148Z,13.25
2022-11-20T12:52:40.541Z,13.13
2022-11-20T12:53:55.914Z,12.23
2022-11-20T12:55:24.604Z,12.35
2022-11-20T12:56:44.268Z,12.52
2022-11-20T12:58:02.613Z,12.73
2022-11-20T12:59:35.087Z,13.90
2022-11-20T13:01:08.133Z,12.80
2022-11-20T13:02:43.080Z,15.27
2022-11-20T13:03:58.197Z,11.90
2022-11-20T13:05:21.107Z,13.55
2022-11-20T13:06:27.373Z,15.10
2022-11-20T13:07:33.273Z,13.32
2022-11-20T13:08:41.570Z,11.65
2022-11-20T13:09:52.071Z,12.02
2022-11-20T13:11:21.334Z,13.88
2022-11-20T13:13:14.685Z,13.60
2022-11-20T13:15:05.368Z,11.95
2022-11-20T13:16:31.948Z,13.25
2022-11-20T13:18:00.504Z,13.00
2022-11-20T13:19:10.327Z,13.45
2022-11-20T13:20:18.945Z,14.80
2022-11-20T13:21:42.555Z,13.65
2022-11-20T13:23:00.836Z,16.10
2022-11-20T13:24:31.286Z,13.93
2022-11-20T13:25:41.334Z,14.93
2022-11-20T13:26:45.137Z,13.80
2022-11-20T13:27:50.269Z,13.82
2022-11-20T13:29:30.834Z,14.27
2022-11-20T13:30:37.037Z,11.95
2022-11-20T13:31:46.700Z,14.25
2022-11-20T13:33:24.966Z,11.25
2022-11-20T13:34:29.110Z,12.32
2022-11-20T13:35:41.598Z,13.30
2022-11-20T13:36:58.568Z,15.00
2022-11-20T13:38:15.446Z,12.70
2022-11-20T13:39:27.260Z,12.07
2022-11-20T13:40:31.609Z,13.05
2022-11-20T13:41:40.513Z,15.65
2022-11-20T13:42:44.607Z,12.40
2022-11-20T13:43:50.183Z,13.25
2022-11-20T13:44:56.689Z,13.57
2022-11-20T13:46:10.752Z,11.88
2022-11-20T13:47:25.932Z,15.48
2022-11-20T13:48:42.629Z,16.52
2022-11-20T13:49:46.612Z,16.40
2022-11-20T13:51:24.576Z,15.57
2022-11-20T13:52:55.515Z,12.48
2022-11-20T13:54:35.276Z,13.07
2022-11-20T13:56:26.646Z,14.38
2022-11-20T13:58:07.379Z,14.30
2022-11-20T14:00:11.843Z,15.80
2022-11-20T14:01:31.192Z,13.98
2022-11-20T14:02:34.839Z,14.85
2022-11-20T14:04:05.214Z,13.57
2022-11-20T14:05:33.797Z,13.15
2022-11-20T14:06:47.847Z,13.15
2022-11-20T14:07:53.911Z,12.88
2022-11-20T14:09:00.369Z,12.93
2022-11-20T14:10:04.675Z,12.60
2022-11-20T14:11:28.614Z,12.13
2022-11-20T14:12:37.895Z,14.65
2022-11-20T14:14:02.841Z,12.93
2022-11-20T14:15:06.837Z,11.80
2022-11-20T14:16:19.135Z,12.52
2022-11-20T14:17:37.008Z,11.52
2022-11-20T14:18:40.596Z,14.02
2022-11-20T14:19:47.279Z,11.35
2022-11-20T14:20:50.747Z,12.68
2022-11-20T14:22:20.861Z,13.55
2022-11-20T14:23:31.414Z,11.93
2022-11-20T14:24:38.137Z,11.95
2022-11-20T14:25:46.901Z,14.60
2022-11-20T14:26:53.084Z,12.68
2022-11-20T14:28:00.730Z,11.77
2022-11-20T14:29:05.688Z,12.80
2022-11-20T14:30:27.386Z,13.35
2022-11-20T14:31:31.834Z,13.55
2022-11-20T14:32:49.001Z,12.23
2022-11-20T14:33:55.922Z,8.68
2022-11-20T14:35:15.973Z,11.45
2022-11-20T14:36:24.513Z,12.75
2022-11-20T14:37:34.763Z,12.65
2022-11-20T14:38:38.481Z,11.25
2022-11-20T14:39:54.789Z,12.35
2022-11-20T14:41:10.553Z,10.85
2022-11-20T14:42:24.536Z,11.00
2022-11-20T14:43:30.091Z,14.10
2022-11-20T14:44:38.750Z,12.10
2022-11-20T14:45:43.486Z,13.20
2022-11-20T14:46:47.867Z,12.73
2022-11-20T14:47:58.678Z,13.70
2022-11-20T14:49:05.939Z,12.18
2022-11-20T14:50:30.657Z,13.93
2022-11-20T14:51:44.201Z,12.20
2022-11-20T14:53:01.411Z,10.77
2022-11-20T14:54:18.478Z,14.35
2022-11-20T14:55:39.533Z,11.38
2022-11-20T14:57:03.906Z,14.30
2022-11-20T14:58:26.228Z,13.05
2022-11-20T14:59:35.711Z,11.27
2022-11-20T15:00:39.358Z,11.63
2022-11-20T15:02:00.518Z,12.20
2022-11-20T15:03:03.954Z,10.80
2022-11-20T15:04:12.983Z,12.63
2022-11-20T15:05:19.983Z,12.90
2022-11-20T15:06:27.918Z,13.80
2022-11-20T15:07:39.066Z,13.57
2022-11-20T15:08:53.307Z,11.85
2022-11-20T15:10:17.905Z,11.30
2022-11-20T15:11:34.378Z,10.77
2022-11-20T15:13:02.778Z,15.18
2022-11-20T15:14:09.025Z,12.07
2022-11-20T15:15:18.095Z,14.30
2022-11-20T15:16:25.177Z,14.57
2022-11-20T15:17:29.273Z,12.88
2022-11-20T15:18:44.869Z,12.68
2022-11-20T15:19:48.353Z,12.65
2022-11-20T15:20:53.495Z,15.32
2022-11-20T15:21:57.671Z,14.73
2022-11-20T15:23:05.094Z,15.48
2022-11-20T15:24:11.140Z,13.27
2022-11-20T15:25:19.233Z,16.85
2022-11-20T15:26:28.205Z,14.00
2022-11-20T15:27:31.831Z,14.73
2022-11-20T15:28:43.233Z,16.08
2022-11-20T15:29:46.815Z,16.05
2022-11-20T15:30:51.103Z,14.43
2022-11-20T15:31:55.794Z,14.27
2022-11-20T15:32:59.330Z,14.05
2022-11-20T15:34:03.147Z,14.70
2022-11-20T15:35:12.241Z,15.32
2022-11-20T15:36:15.829Z,15.38
2022-11-20T15:37:19.760Z,14.02
2022-11-20T15:38:23.584Z,14.50
2022-11-20T15:39:27.156Z,13.15
2022-11-20T15:40:30.634Z,14.18
2022-11-20T15:41:35.920Z,17.88
2022-11-20T15:42:39.453Z,14.18
2022-11-20T15:43:43.681Z,12.85
2022-11-20T15:44:47.210Z,15.95
2022-11-20T15:45:57.607Z,14.40
2022-11-20T15:47:01.512Z,14.73
2022-11-20T15:48:12.635Z,16.63
2022-11-20T15:49:20.145Z,11.98
2022-11-20T15:50:31.018Z,13.98
2022-11-20T15:52:14.607Z,15.52
2022-11-20T15:53:22.008Z,15.85
2022-11-20T15:54:26.058Z,15.23
2022-11-20T15:55:30.145Z,16.95
2022-11-20T15:56:34.483Z,12.02
2022-11-20T15:57:37.917Z,13.32
2022-11-20T15:58:42.463Z,14.32
2022-11-20T15:59:46.802Z,14.80
2022-11-20T16:00:51.108Z,15.13
2022-11-20T16:01:54.681Z,17.35
2022-11-20T16:02:58.295Z,14.15
2022-11-20T16:04:03.476Z,17.25
2022-11-20T16:05:14.867Z,16.55
2022-11-20T16:06:19.425Z,14.60
2022-11-20T16:07:23.000Z,13.95
2022-11-20T16:08:26.603Z,15.60
2022-11-20T16:09:31.215Z,16.95
2022-11-20T16:10:35.311Z,16.77
2022-11-20T16:11:39.043Z,14.48
2022-11-20T16:13:01.472Z,14.52
2022-11-20T16:14:30.333Z,14.27
2022-11-20T16:15:48.241Z,14.93
2022-11-20T16:17:06.914Z,14.77
2022-11-20T16:18:14.511Z,15.00
2022-11-20T16:19:19.318Z,15.00
2022-11-20T16:20:22.988Z,15.45
2022-11-20T16:21:33.415Z,17.23
2022-11-20T16:22:36.897Z,16.52
2022-11-20T16:23:41.595Z,15.50
2022-11-20T16:24:45.212Z,15.13
2022-11-20T16:25:50.219Z,16.17
2022-11-20T16:26:57.008Z,16.30
2022-11-20T16:28:00.550Z,17.13
2022-11-20T16:29:06.750Z,15.23
2022-11-20T16:30:11.253Z,16.40
2022-11-20T16:31:18.577Z,15.82
2022-11-20T16:32:22.770Z,16.73
2022-11-20T16:33:26.441Z,14.13
2022-11-20T16:34:30.200Z,17.10
2022-11-20T16:35:33.669Z,15.02
2022-11-20T16:36:41.050Z,14.77
2022-11-20T16:37:44.955Z,16.23
2022-11-20T16:38:54.967Z,16.63
2022-11-20T16:39:58.320Z,16.95
2022-11-20T16:41:03.713Z,15.18
2022-11-20T16:42:07.961Z,16.58
2022-11-20T16:43:15.057Z,17.52
2022-11-20T16:44:18.487Z,18.42
2022-11-20T16:45:26.209Z,15.80
2022-11-20T16:46:33.387Z,16.45
2022-11-20T16:47:37.292Z,16.85
2022-11-20T16:48:41.480Z,16.15
2022-11-20T16:49:46.959Z,15.55
2022-11-20T16:50:55.314Z,15.20
2022-11-20T16:52:02.432Z,15.18
2022-11-20T16:53:06.136Z,16.25
2022-11-20T16:54:13.051Z,16.15
2022-11-20T16:55:18.633Z,17.77
2022-11-20T16:56:28.288Z,14.45
2022-11-20T16:57:35.590Z,17.00
2022-11-20T16:59:07.305Z,15.52
2022-11-20T17:00:12.448Z,14.48
2022-11-20T17:01:24.417Z,14.18
2022-11-20T17:02:28.480Z,17.50
2022-11-20T17:03:32.552Z,14.65
2022-11-20T17:04:39.666Z,16.13
2022-11-20T17:05:43.314Z,12.95
2022-11-20T17:06:48.244Z,14.18
2022-11-20T17:07:58.310Z,19.02
2022-11-20T17:09:05.214Z,15.40
2022-11-20T17:10:12.274Z,14.50
2022-11-20T17:11:18.953Z,14.75
2022-11-20T17:12:23.263Z,15.88
2022-11-20T17:13:26.744Z,18.58
2022-11-20T17:14:30.154Z,14.77
2022-11-20T17:15:33.979Z,20.38
2022-11-20T17:16:39.744Z,15.98
2022-11-20T17:17:44.005Z,16.67
2022-11-20T17:18:50.018Z,13.85
2022-11-20T17:19:53.454Z,17.73
2022-11-20T17:20:57.143Z,14.45
2022-11-20T17:22:02.583Z,16.25
2022-11-20T17:23:11.585Z,14.32
2022-11-20T17:24:17.371Z,17.88
2022-11-20T17:25:20.876Z,15.43
2022-11-20T17:26:24.903Z,16.35
2022-11-20T17:27:28.705Z,18.75
2022-11-20T17:28:39.396Z,15.82
2022-11-20T17:29:43.863Z,17.23
2022-11-20T17:30:48.585Z,14.48
2022-11-20T17:31:58.518Z,16.00
2022-11-20T17:33:02.578Z,15.75
2022-11-20T17:34:14.956Z,16.35
2022-11-20T17:35:19.646Z,18.00
2022-11-20T17:36:25.132Z,17.05
2022-11-20T17:37:30.408Z,16.58
2022-11-20T17:38:38.613Z,16.77
2022-11-20T17:39:53.993Z,14.85
2022-11-20T17:41:22.585Z,18.55
2022-11-20T17:42:30.413Z,15.43
2022-11-20T17:43:44.931Z,19.80
2022-11-20T17:44:49.551Z,15.77
2022-11-20T17:45:57.459Z,15.23
2022-11-20T17:47:06.708Z,18.50
2022-11-20T17:48:11.794Z,18.55
2022-11-20T17:49:22.850Z,16.23
2022-11-20T17:50:34.170Z,16.52
2022-11-20T17:51:48.066Z,14.80
2022-11-20T17:52:53.675Z,13.77
2022-11-20T17:54:07.532Z,16.88
2022-11-20T17:55:11.321Z,14.88
2022-11-20T17:56:34.450Z,17.08
2022-11-20T17:57:56.929Z,13.88
2022-11-20T17:59:05.353Z,15.65
2022-11-20T18:00:13.340Z,14.05
2022-11-20T18:01:19.372Z,19.35
2022-11-20T18:02:26.010Z,16.17
2022-11-20T18:03:33.450Z,14.48
2022-11-20T18:04:40.258Z,14.00
2022-11-20T18:05:47.602Z,14.93
2022-11-20T18:06:51.585Z,15.93
2022-11-20T18:07:59.395Z,13.88
2022-11-20T18:09:27.417Z,17.45
2022-11-20T18:10:31.970Z,16.10
2022-11-20T18:11:43.158Z,16.02
2022-11-20T18:12:47.103Z,12.75
2022-11-20T18:14:18.565Z,16.08
2022-11-20T18:15:22.913Z,14.98
2022-11-20T18:16:30.879Z,15.80
2022-11-20T18:17:36.479Z,15.15
2022-11-20T18:18:45.248Z,16.55